sensor_id;sensor_type;location;lat;lon;timestamp;P1;durP1;ratioP1;P2;durP2;ratioP2
8704;SDS011;4389;41.932;25.904;2024-01-30T00:01:16;11.03;;;6.23;;
8704;SDS011;4389;41.932;25.904;2024-01-30T00:03:43;8.30;;;6.10;;
8704;SDS011;4389;41.932;25.904;2024-01-30T00:06:12;9.60;;;6.40;;
8704;SDS011;4389;41.932;25.904;2024-01-30T00:08:39;9.20;;;6.40;;
8704;SDS011;4389;41.932;25.904;2024-01-30T00:11:07;9.07;;;6.23;;
8704;SDS011;4389;41.932;25.904;2024-01-30T00:13:34;8.37;;;6.03;;
8704;SDS011;4389;41.932;25.904;2024-01-30T00:16:01;8.90;;;5.90;;
8704;SDS011;4389;41.932;25.904;2024-01-30T00:18:29;8.23;;;6.23;;
8704;SDS011;4389;41.932;25.904;2024-01-30T00:20:55;11.73;;;6.70;;
8704;SDS011;4389;41.932;25.904;2024-01-30T00:23:24;8.57;;;5.93;;
8704;SDS011;4389;41.932;25.904;2024-01-30T00:25:50;8.37;;;6.07;;
8704;SDS011;4389;41.932;25.904;2024-01-30T00:28:17;8.70;;;6.50;;
8704;SDS011;4389;41.932;25.904;2024-01-30T00:30:44;8.33;;;6.17;;
8704;SDS011;4389;41.932;25.904;2024-01-30T00:33:11;8.37;;;6.03;;
8704;SDS011;4389;41.932;25.904;2024-01-30T00:35:38;8.00;;;6.40;;
8704;SDS011;4389;41.932;25.904;2024-01-30T00:38:05;8.80;;;6.37;;
8704;SDS011;4389;41.932;25.904;2024-01-30T00:40:34;10.57;;;6.23;;
8704;SDS011;4389;41.932;25.904;2024-01-30T00:43:01;14.07;;;7.83;;
8704;SDS011;4389;41.932;25.904;2024-01-30T00:45:28;13.80;;;6.43;;
8704;SDS011;4389;41.932;25.904;2024-01-30T00:47:55;8.73;;;6.03;;
8704;SDS011;4389;41.932;25.904;2024-01-30T00:50:21;8.23;;;6.07;;
8704;SDS011;4389;41.932;25.904;2024-01-30T00:52:48;33.13;;;9.03;;
8704;SDS011;4389;41.932;25.904;2024-01-30T00:55:15;7.63;;;5.73;;
8704;SDS011;4389;41.932;25.904;2024-01-30T00:57:43;9.37;;;6.87;;
8704;SDS011;4389;41.932;25.904;2024-01-30T01:00:11;8.17;;;6.17;;
8704;SDS011;4389;41.932;25.904;2024-01-30T01:02:41;8.83;;;6.47;;
8704;SDS011;4389;41.932;25.904;2024-01-30T01:05:08;15.00;;;6.10;;
8704;SDS011;4389;41.932;25.904;2024-01-30T01:07:35;7.67;;;5.97;;
8704;SDS011;4389;41.932;25.904;2024-01-30T01:10:02;9.17;;;5.90;;
8704;SDS011;4389;41.932;25.904;2024-01-30T01:12:29;8.37;;;5.60;;
8704;SDS011;4389;41.932;25.904;2024-01-30T01:14:57;7.87;;;5.63;;
8704;SDS011;4389;41.932;25.904;2024-01-30T01:17:24;7.80;;;5.57;;
8704;SDS011;4389;41.932;25.904;2024-01-30T01:19:51;8.37;;;5.47;;
8704;SDS011;4389;41.932;25.904;2024-01-30T01:22:18;6.57;;;5.50;;
8704;SDS011;4389;41.932;25.904;2024-01-30T01:24:44;7.90;;;5.90;;
8704;SDS011;4389;41.932;25.904;2024-01-30T01:27:11;7.10;;;5.40;;
8704;SDS011;4389;41.932;25.904;2024-01-30T01:29:38;7.87;;;5.60;;
8704;SDS011;4389;41.932;25.904;2024-01-30T01:32:06;7.57;;;5.83;;
8704;SDS011;4389;41.932;25.904;2024-01-30T01:34:33;6.50;;;5.43;;
8704;SDS011;4389;41.932;25.904;2024-01-30T01:37:00;8.13;;;5.37;;
8704;SDS011;4389;41.932;25.904;2024-01-30T01:39:27;6.70;;;4.93;;
8704;SDS011;4389;41.932;25.904;2024-01-30T01:41:53;6.57;;;4.60;;
8704;SDS011;4389;41.932;25.904;2024-01-30T01:44:20;6.77;;;4.97;;
8704;SDS011;4389;41.932;25.904;2024-01-30T01:46:47;7.70;;;5.67;;
8704;SDS011;4389;41.932;25.904;2024-01-30T01:49:16;6.00;;;4.87;;
8704;SDS011;4389;41.932;25.904;2024-01-30T01:51:42;6.87;;;5.20;;
8704;SDS011;4389;41.932;25.904;2024-01-30T01:54:10;7.10;;;4.67;;
8704;SDS011;4389;41.932;25.904;2024-01-30T01:56:38;7.67;;;5.23;;
8704;SDS011;4389;41.932;25.904;2024-01-30T01:59:06;6.80;;;4.90;;
8704;SDS011;4389;41.932;25.904;2024-01-30T02:01:34;6.63;;;5.03;;
8704;SDS011;4389;41.932;25.904;2024-01-30T02:04:02;6.33;;;5.10;;
8704;SDS011;4389;41.932;25.904;2024-01-30T02:06:31;6.40;;;5.20;;
8704;SDS011;4389;41.932;25.904;2024-01-30T02:08:59;8.67;;;5.70;;
8704;SDS011;4389;41.932;25.904;2024-01-30T02:11:26;5.97;;;4.43;;
8704;SDS011;4389;41.932;25.904;2024-01-30T02:13:53;6.47;;;4.80;;
8704;SDS011;4389;41.932;25.904;2024-01-30T02:16:20;6.77;;;5.20;;
8704;SDS011;4389;41.932;25.904;2024-01-30T02:18:49;5.60;;;4.40;;
8704;SDS011;4389;41.932;25.904;2024-01-30T02:21:17;5.77;;;4.37;;
8704;SDS011;4389;41.932;25.904;2024-01-30T02:23:46;5.70;;;4.47;;
8704;SDS011;4389;41.932;25.904;2024-01-30T02:26:13;6.83;;;5.03;;
8704;SDS011;4389;41.932;25.904;2024-01-30T02:28:40;6.37;;;4.43;;
8704;SDS011;4389;41.932;25.904;2024-01-30T02:31:07;6.33;;;4.97;;
8704;SDS011;4389;41.932;25.904;2024-01-30T02:33:34;7.47;;;5.07;;
8704;SDS011;4389;41.932;25.904;2024-01-30T02:36:01;6.20;;;4.87;;
8704;SDS011;4389;41.932;25.904;2024-01-30T02:38:29;5.57;;;4.17;;
8704;SDS011;4389;41.932;25.904;2024-01-30T02:40:57;9.30;;;6.30;;
8704;SDS011;4389;41.932;25.904;2024-01-30T02:43:23;8.47;;;5.53;;
8704;SDS011;4389;41.932;25.904;2024-01-30T02:45:50;7.17;;;5.33;;
8704;SDS011;4389;41.932;25.904;2024-01-30T02:48:17;7.30;;;5.37;;
8704;SDS011;4389;41.932;25.904;2024-01-30T02:50:44;7.60;;;5.67;;
8704;SDS011;4389;41.932;25.904;2024-01-30T02:53:12;8.53;;;6.33;;
8704;SDS011;4389;41.932;25.904;2024-01-30T02:55:40;14.30;;;6.47;;
8704;SDS011;4389;41.932;25.904;2024-01-30T02:58:07;7.10;;;5.13;;
8704;SDS011;4389;41.932;25.904;2024-01-30T03:00:34;8.23;;;6.63;;
8704;SDS011;4389;41.932;25.904;2024-01-30T03:03:00;7.70;;;5.23;;
8704;SDS011;4389;41.932;25.904;2024-01-30T03:05:27;15.93;;;11.53;;
8704;SDS011;4389;41.932;25.904;2024-01-30T03:07:54;7.90;;;5.97;;
8704;SDS011;4389;41.932;25.904;2024-01-30T03:10:21;7.57;;;5.70;;
8704;SDS011;4389;41.932;25.904;2024-01-30T03:12:49;7.27;;;5.73;;
8704;SDS011;4389;41.932;25.904;2024-01-30T03:15:16;7.53;;;6.03;;
8704;SDS011;4389;41.932;25.904;2024-01-30T03:17:43;7.83;;;5.33;;
8704;SDS011;4389;41.932;25.904;2024-01-30T03:20:10;8.83;;;6.13;;
8704;SDS011;4389;41.932;25.904;2024-01-30T03:22:38;8.37;;;5.83;;
8704;SDS011;4389;41.932;25.904;2024-01-30T03:25:05;12.13;;;6.47;;
8704;SDS011;4389;41.932;25.904;2024-01-30T03:27:32;6.93;;;5.67;;
8704;SDS011;4389;41.932;25.904;2024-01-30T03:30:00;9.33;;;6.40;;
8704;SDS011;4389;41.932;25.904;2024-01-30T03:32:27;8.47;;;6.33;;
8704;SDS011;4389;41.932;25.904;2024-01-30T03:34:54;11.13;;;6.60;;
8704;SDS011;4389;41.932;25.904;2024-01-30T03:37:20;13.60;;;6.67;;
8704;SDS011;4389;41.932;25.904;2024-01-30T03:39:47;10.10;;;6.67;;
8704;SDS011;4389;41.932;25.904;2024-01-30T03:42:14;8.10;;;6.03;;
8704;SDS011;4389;41.932;25.904;2024-01-30T03:44:41;8.70;;;5.80;;
8704;SDS011;4389;41.932;25.904;2024-01-30T03:47:10;9.47;;;6.37;;
8704;SDS011;4389;41.932;25.904;2024-01-30T03:49:37;8.77;;;6.73;;
8704;SDS011;4389;41.932;25.904;2024-01-30T03:52:03;8.60;;;6.43;;
8704;SDS011;4389;41.932;25.904;2024-01-30T03:54:30;9.37;;;6.10;;
8704;SDS011;4389;41.932;25.904;2024-01-30T03:56:57;9.80;;;6.50;;
8704;SDS011;4389;41.932;25.904;2024-01-30T03:59:24;7.77;;;5.97;;
8704;SDS011;4389;41.932;25.904;2024-01-30T04:01:51;9.27;;;7.30;;
8704;SDS011;4389;41.932;25.904;2024-01-30T04:04:19;11.23;;;7.27;;
8704;SDS011;4389;41.932;25.904;2024-01-30T04:06:46;9.37;;;6.97;;
8704;SDS011;4389;41.932;25.904;2024-01-30T04:09:13;7.30;;;5.93;;
8704;SDS011;4389;41.932;25.904;2024-01-30T04:11:41;13.23;;;6.37;;
8704;SDS011;4389;41.932;25.904;2024-01-30T04:14:08;11.03;;;7.03;;
8704;SDS011;4389;41.932;25.904;2024-01-30T04:16:35;7.80;;;5.97;;
8704;SDS011;4389;41.932;25.904;2024-01-30T04:19:02;9.23;;;6.77;;
8704;SDS011;4389;41.932;25.904;2024-01-30T04:21:30;8.07;;;6.30;;
8704;SDS011;4389;41.932;25.904;2024-01-30T04:23:57;7.77;;;6.37;;
8704;SDS011;4389;41.932;25.904;2024-01-30T04:26:24;9.10;;;6.23;;
8704;SDS011;4389;41.932;25.904;2024-01-30T04:28:51;8.27;;;6.00;;
8704;SDS011;4389;41.932;25.904;2024-01-30T04:31:18;8.33;;;5.87;;
8704;SDS011;4389;41.932;25.904;2024-01-30T04:33:44;8.53;;;6.33;;
8704;SDS011;4389;41.932;25.904;2024-01-30T04:36:11;6.43;;;4.90;;
8704;SDS011;4389;41.932;25.904;2024-01-30T04:38:39;8.43;;;6.17;;
8704;SDS011;4389;41.932;25.904;2024-01-30T04:41:06;8.93;;;6.30;;
8704;SDS011;4389;41.932;25.904;2024-01-30T04:43:34;8.53;;;5.97;;
8704;SDS011;4389;41.932;25.904;2024-01-30T04:46:02;8.70;;;6.57;;
8704;SDS011;4389;41.932;25.904;2024-01-30T04:48:29;10.40;;;6.27;;
8704;SDS011;4389;41.932;25.904;2024-01-30T04:50:58;11.33;;;6.30;;
8704;SDS011;4389;41.932;25.904;2024-01-30T04:53:29;8.40;;;6.67;;
8704;SDS011;4389;41.932;25.904;2024-01-30T04:55:57;9.17;;;6.27;;
8704;SDS011;4389;41.932;25.904;2024-01-30T04:58:26;9.27;;;6.50;;
8704;SDS011;4389;41.932;25.904;2024-01-30T05:00:52;8.47;;;6.90;;
8704;SDS011;4389;41.932;25.904;2024-01-30T05:03:19;11.03;;;7.43;;
8704;SDS011;4389;41.932;25.904;2024-01-30T05:05:48;16.77;;;7.57;;
8704;SDS011;4389;41.932;25.904;2024-01-30T05:08:14;9.43;;;6.93;;
8704;SDS011;4389;41.932;25.904;2024-01-30T05:10:41;9.60;;;6.80;;
8704;SDS011;4389;41.932;25.904;2024-01-30T05:13:10;13.97;;;6.40;;
8704;SDS011;4389;41.932;25.904;2024-01-30T05:15:39;12.57;;;8.00;;
8704;SDS011;4389;41.932;25.904;2024-01-30T05:18:06;10.00;;;6.77;;
8704;SDS011;4389;41.932;25.904;2024-01-30T05:20:32;7.43;;;5.90;;
8704;SDS011;4389;41.932;25.904;2024-01-30T05:22:59;8.53;;;5.13;;
8704;SDS011;4389;41.932;25.904;2024-01-30T05:25:26;10.43;;;6.83;;
8704;SDS011;4389;41.932;25.904;2024-01-30T05:27:53;14.73;;;8.40;;
8704;SDS011;4389;41.932;25.904;2024-01-30T05:30:22;15.27;;;8.47;;
8704;SDS011;4389;41.932;25.904;2024-01-30T05:32:49;15.77;;;9.07;;
8704;SDS011;4389;41.932;25.904;2024-01-30T05:35:16;16.93;;;8.33;;
8704;SDS011;4389;41.932;25.904;2024-01-30T05:37:45;30.93;;;18.67;;
8704;SDS011;4389;41.932;25.904;2024-01-30T05:40:12;16.63;;;12.03;;
8704;SDS011;4389;41.932;25.904;2024-01-30T05:42:39;10.90;;;8.50;;
8704;SDS011;4389;41.932;25.904;2024-01-30T05:45:06;10.27;;;8.27;;
8704;SDS011;4389;41.932;25.904;2024-01-30T05:47:35;9.03;;;6.97;;
8704;SDS011;4389;41.932;25.904;2024-01-30T05:50:02;7.60;;;6.37;;
8704;SDS011;4389;41.932;25.904;2024-01-30T05:52:29;9.03;;;6.60;;
8704;SDS011;4389;41.932;25.904;2024-01-30T05:54:55;7.70;;;5.23;;
8704;SDS011;4389;41.932;25.904;2024-01-30T05:57:22;9.77;;;7.10;;
8704;SDS011;4389;41.932;25.904;2024-01-30T05:59:49;10.63;;;7.53;;
8704;SDS011;4389;41.932;25.904;2024-01-30T06:02:17;12.00;;;7.60;;
8704;SDS011;4389;41.932;25.904;2024-01-30T06:04:45;9.80;;;5.77;;
8704;SDS011;4389;41.932;25.904;2024-01-30T06:07:13;8.90;;;6.43;;
8704;SDS011;4389;41.932;25.904;2024-01-30T06:09:39;11.87;;;6.83;;
8704;SDS011;4389;41.932;25.904;2024-01-30T06:12:07;11.07;;;7.53;;
8704;SDS011;4389;41.932;25.904;2024-01-30T06:14:34;10.80;;;6.73;;
8704;SDS011;4389;41.932;25.904;2024-01-30T06:17:01;9.30;;;7.03;;
8704;SDS011;4389;41.932;25.904;2024-01-30T06:19:28;10.43;;;6.63;;
8704;SDS011;4389;41.932;25.904;2024-01-30T06:21:56;13.40;;;7.80;;
8704;SDS011;4389;41.932;25.904;2024-01-30T06:24:23;8.70;;;7.03;;
8704;SDS011;4389;41.932;25.904;2024-01-30T06:26:49;10.13;;;7.10;;
8704;SDS011;4389;41.932;25.904;2024-01-30T06:29:16;12.00;;;7.30;;
8704;SDS011;4389;41.932;25.904;2024-01-30T06:31:43;9.37;;;6.70;;
8704;SDS011;4389;41.932;25.904;2024-01-30T06:34:10;11.27;;;7.97;;
8704;SDS011;4389;41.932;25.904;2024-01-30T06:36:38;10.10;;;7.73;;
8704;SDS011;4389;41.932;25.904;2024-01-30T06:39:06;14.00;;;8.87;;
8704;SDS011;4389;41.932;25.904;2024-01-30T06:41:34;15.40;;;9.77;;
8704;SDS011;4389;41.932;25.904;2024-01-30T06:44:01;13.50;;;9.90;;
8704;SDS011;4389;41.932;25.904;2024-01-30T06:46:29;12.17;;;8.77;;
8704;SDS011;4389;41.932;25.904;2024-01-30T06:48:56;12.87;;;8.33;;
8704;SDS011;4389;41.932;25.904;2024-01-30T06:51:22;11.00;;;9.10;;
8704;SDS011;4389;41.932;25.904;2024-01-30T06:53:49;12.97;;;10.27;;
8704;SDS011;4389;41.932;25.904;2024-01-30T06:56:18;15.00;;;9.03;;
8704;SDS011;4389;41.932;25.904;2024-01-30T06:58:46;9.63;;;8.00;;
8704;SDS011;4389;41.932;25.904;2024-01-30T07:01:13;13.37;;;8.83;;
8704;SDS011;4389;41.932;25.904;2024-01-30T07:03:41;11.33;;;8.67;;
8704;SDS011;4389;41.932;25.904;2024-01-30T07:06:08;10.97;;;7.33;;
8704;SDS011;4389;41.932;25.904;2024-01-30T07:08:36;12.10;;;7.67;;
8704;SDS011;4389;41.932;25.904;2024-01-30T07:11:04;17.00;;;9.93;;
8704;SDS011;4389;41.932;25.904;2024-01-30T07:13:32;14.33;;;8.70;;
8704;SDS011;4389;41.932;25.904;2024-01-30T07:15:59;11.80;;;8.73;;
8704;SDS011;4389;41.932;25.904;2024-01-30T07:18:26;15.07;;;8.23;;
8704;SDS011;4389;41.932;25.904;2024-01-30T07:20:53;9.67;;;7.13;;
8704;SDS011;4389;41.932;25.904;2024-01-30T07:23:20;10.37;;;7.90;;
8704;SDS011;4389;41.932;25.904;2024-01-30T07:25:49;16.57;;;8.07;;
8704;SDS011;4389;41.932;25.904;2024-01-30T07:28:19;15.47;;;8.57;;
8704;SDS011;4389;41.932;25.904;2024-01-30T07:30:47;8.43;;;6.97;;
8704;SDS011;4389;41.932;25.904;2024-01-30T07:33:16;9.40;;;7.33;;
8704;SDS011;4389;41.932;25.904;2024-01-30T07:35:42;8.27;;;6.17;;
8704;SDS011;4389;41.932;25.904;2024-01-30T07:38:09;13.03;;;7.27;;
8704;SDS011;4389;41.932;25.904;2024-01-30T07:40:36;11.00;;;7.13;;
8704;SDS011;4389;41.932;25.904;2024-01-30T07:43:03;10.50;;;7.23;;
8704;SDS011;4389;41.932;25.904;2024-01-30T07:45:30;17.63;;;7.20;;
8704;SDS011;4389;41.932;25.904;2024-01-30T07:47:59;10.23;;;6.77;;
8704;SDS011;4389;41.932;25.904;2024-01-30T07:50:26;11.47;;;8.13;;
8704;SDS011;4389;41.932;25.904;2024-01-30T07:52:53;10.00;;;7.53;;
8704;SDS011;4389;41.932;25.904;2024-01-30T07:55:22;9.53;;;7.47;;
8704;SDS011;4389;41.932;25.904;2024-01-30T07:57:49;9.70;;;7.40;;
8704;SDS011;4389;41.932;25.904;2024-01-30T08:00:18;13.07;;;7.20;;
8704;SDS011;4389;41.932;25.904;2024-01-30T08:02:45;10.70;;;7.67;;
8704;SDS011;4389;41.932;25.904;2024-01-30T08:05:13;10.90;;;7.27;;
8704;SDS011;4389;41.932;25.904;2024-01-30T08:07:40;8.97;;;6.90;;
8704;SDS011;4389;41.932;25.904;2024-01-30T08:10:07;7.13;;;5.97;;
8704;SDS011;4389;41.932;25.904;2024-01-30T08:12:35;10.43;;;7.37;;
8704;SDS011;4389;41.932;25.904;2024-01-30T08:15:02;7.57;;;6.40;;
8704;SDS011;4389;41.932;25.904;2024-01-30T08:17:30;8.20;;;6.00;;
8704;SDS011;4389;41.932;25.904;2024-01-30T08:19:57;7.47;;;6.13;;
8704;SDS011;4389;41.932;25.904;2024-01-30T08:22:25;8.37;;;5.67;;
8704;SDS011;4389;41.932;25.904;2024-01-30T08:24:52;7.93;;;6.00;;
8704;SDS011;4389;41.932;25.904;2024-01-30T08:27:19;8.73;;;6.60;;
8704;SDS011;4389;41.932;25.904;2024-01-30T08:29:46;7.30;;;6.27;;
8704;SDS011;4389;41.932;25.904;2024-01-30T08:32:13;10.33;;;6.93;;
8704;SDS011;4389;41.932;25.904;2024-01-30T08:34:40;8.57;;;6.37;;
8704;SDS011;4389;41.932;25.904;2024-01-30T08:37:06;9.17;;;7.00;;
8704;SDS011;4389;41.932;25.904;2024-01-30T08:39:34;11.47;;;7.60;;
8704;SDS011;4389;41.932;25.904;2024-01-30T08:42:02;12.03;;;6.40;;
8704;SDS011;4389;41.932;25.904;2024-01-30T08:44:29;12.40;;;8.30;;
8704;SDS011;4389;41.932;25.904;2024-01-30T08:46:55;14.07;;;6.63;;
8704;SDS011;4389;41.932;25.904;2024-01-30T08:49:21;8.20;;;6.37;;
8704;SDS011;4389;41.932;25.904;2024-01-30T08:51:48;9.40;;;6.03;;
8704;SDS011;4389;41.932;25.904;2024-01-30T08:54:15;9.67;;;6.90;;
8704;SDS011;4389;41.932;25.904;2024-01-30T08:56:44;11.23;;;6.40;;
8704;SDS011;4389;41.932;25.904;2024-01-30T08:59:10;9.07;;;6.63;;
8704;SDS011;4389;41.932;25.904;2024-01-30T09:01:37;9.63;;;6.57;;
8704;SDS011;4389;41.932;25.904;2024-01-30T09:04:04;13.20;;;7.57;;
8704;SDS011;4389;41.932;25.904;2024-01-30T09:06:31;8.37;;;6.07;;
8704;SDS011;4389;41.932;25.904;2024-01-30T09:08:58;9.93;;;6.60;;
8704;SDS011;4389;41.932;25.904;2024-01-30T09:11:24;15.32;;;8.77;;
8704;SDS011;4389;41.932;25.904;2024-01-30T09:13:53;17.13;;;11.67;;
8704;SDS011;4389;41.932;25.904;2024-01-30T09:16:19;9.13;;;7.03;;
8704;SDS011;4389;41.932;25.904;2024-01-30T09:18:47;8.73;;;6.20;;
8704;SDS011;4389;41.932;25.904;2024-01-30T09:21:13;9.33;;;7.60;;
8704;SDS011;4389;41.932;25.904;2024-01-30T09:23:40;9.13;;;6.37;;
8704;SDS011;4389;41.932;25.904;2024-01-30T09:26:07;7.30;;;5.53;;
8704;SDS011;4389;41.932;25.904;2024-01-30T09:28:34;11.23;;;6.57;;
8704;SDS011;4389;41.932;25.904;2024-01-30T09:31:03;8.17;;;5.37;;
8704;SDS011;4389;41.932;25.904;2024-01-30T09:33:30;8.57;;;5.57;;
8704;SDS011;4389;41.932;25.904;2024-01-30T09:35:56;6.63;;;5.40;;
8704;SDS011;4389;41.932;25.904;2024-01-30T09:38:23;6.47;;;5.20;;
8704;SDS011;4389;41.932;25.904;2024-01-30T09:40:54;6.20;;;4.60;;
8704;SDS011;4389;41.932;25.904;2024-01-30T09:43:22;16.17;;;5.37;;
8704;SDS011;4389;41.932;25.904;2024-01-30T09:45:51;7.03;;;5.60;;
8704;SDS011;4389;41.932;25.904;2024-01-30T09:48:23;8.47;;;5.63;;
8704;SDS011;4389;41.932;25.904;2024-01-30T09:50:52;5.67;;;4.50;;
8704;SDS011;4389;41.932;25.904;2024-01-30T09:53:20;7.00;;;5.00;;
8704;SDS011;4389;41.932;25.904;2024-01-30T09:55:48;7.53;;;5.07;;
8704;SDS011;4389;41.932;25.904;2024-01-30T09:58:17;7.40;;;5.13;;
8704;SDS011;4389;41.932;25.904;2024-01-30T10:00:45;5.57;;;4.77;;
8704;SDS011;4389;41.932;25.904;2024-01-30T10:03:12;9.70;;;5.13;;
8704;SDS011;4389;41.932;25.904;2024-01-30T10:05:42;6.97;;;4.97;;
8704;SDS011;4389;41.932;25.904;2024-01-30T10:08:17;10.20;;;4.87;;
8704;SDS011;4389;41.932;25.904;2024-01-30T10:10:45;7.33;;;4.43;;
8704;SDS011;4389;41.932;25.904;2024-01-30T10:13:13;7.30;;;4.17;;
8704;SDS011;4389;41.932;25.904;2024-01-30T10:15:41;67.57;;;9.00;;
8704;SDS011;4389;41.932;25.904;2024-01-30T10:18:08;7.37;;;5.10;;
8704;SDS011;4389;41.932;25.904;2024-01-30T10:20:35;5.53;;;4.27;;
8704;SDS011;4389;41.932;25.904;2024-01-30T10:23:04;6.80;;;4.87;;
8704;SDS011;4389;41.932;25.904;2024-01-30T10:25:33;7.70;;;4.70;;
8704;SDS011;4389;41.932;25.904;2024-01-30T10:28:00;7.00;;;3.27;;
8704;SDS011;4389;41.932;25.904;2024-01-30T10:30:27;6.67;;;4.00;;
8704;SDS011;4389;41.932;25.904;2024-01-30T10:32:55;4.00;;;3.60;;
8704;SDS011;4389;41.932;25.904;2024-01-30T10:35:22;4.30;;;3.40;;
8704;SDS011;4389;41.932;25.904;2024-01-30T10:37:49;5.37;;;3.87;;
8704;SDS011;4389;41.932;25.904;2024-01-30T10:40:18;6.70;;;3.73;;
8704;SDS011;4389;41.932;25.904;2024-01-30T10:42:53;7.40;;;3.53;;
8704;SDS011;4389;41.932;25.904;2024-01-30T10:45:22;5.27;;;3.30;;
8704;SDS011;4389;41.932;25.904;2024-01-30T10:47:49;5.80;;;4.23;;
8704;SDS011;4389;41.932;25.904;2024-01-30T10:50:19;9.33;;;4.10;;
8704;SDS011;4389;41.932;25.904;2024-01-30T10:52:47;8.83;;;4.77;;
8704;SDS011;4389;41.932;25.904;2024-01-30T10:55:14;7.13;;;5.47;;
8704;SDS011;4389;41.932;25.904;2024-01-30T10:57:46;7.87;;;4.33;;
8704;SDS011;4389;41.932;25.904;2024-01-30T11:00:14;6.70;;;4.00;;
8704;SDS011;4389;41.932;25.904;2024-01-30T11:02:42;7.20;;;5.10;;
8704;SDS011;4389;41.932;25.904;2024-01-30T11:05:11;10.27;;;6.97;;
8704;SDS011;4389;41.932;25.904;2024-01-30T11:07:40;19.90;;;8.53;;
8704;SDS011;4389;41.932;25.904;2024-01-30T11:10:08;9.80;;;5.47;;
8704;SDS011;4389;41.932;25.904;2024-01-30T11:12:40;4.30;;;3.27;;
8704;SDS011;4389;41.932;25.904;2024-01-30T11:15:12;10.63;;;3.87;;
8704;SDS011;4389;41.932;25.904;2024-01-30T11:17:44;4.83;;;3.80;;
8704;SDS011;4389;41.932;25.904;2024-01-30T11:20:12;6.80;;;4.27;;
8704;SDS011;4389;41.932;25.904;2024-01-30T11:22:42;7.57;;;4.80;;
8704;SDS011;4389;41.932;25.904;2024-01-30T11:25:12;7.13;;;4.57;;
8704;SDS011;4389;41.932;25.904;2024-01-30T11:27:41;6.13;;;4.60;;
8704;SDS011;4389;41.932;25.904;2024-01-30T11:30:11;9.30;;;4.27;;
8704;SDS011;4389;41.932;25.904;2024-01-30T11:32:57;6.13;;;3.67;;
8704;SDS011;4389;41.932;25.904;2024-01-30T11:35:30;5.17;;;3.87;;
8704;SDS011;4389;41.932;25.904;2024-01-30T11:38:00;5.73;;;3.23;;
8704;SDS011;4389;41.932;25.904;2024-01-30T11:40:29;5.70;;;3.87;;
8704;SDS011;4389;41.932;25.904;2024-01-30T11:42:58;4.73;;;3.63;;
8704;SDS011;4389;41.932;25.904;2024-01-30T11:45:29;5.70;;;4.53;;
8704;SDS011;4389;41.932;25.904;2024-01-30T11:47:56;7.70;;;4.90;;
8704;SDS011;4389;41.932;25.904;2024-01-30T11:50:25;4.93;;;3.20;;
8704;SDS011;4389;41.932;25.904;2024-01-30T11:52:52;6.30;;;4.57;;
8704;SDS011;4389;41.932;25.904;2024-01-30T11:55:20;6.67;;;4.70;;
8704;SDS011;4389;41.932;25.904;2024-01-30T11:57:47;6.97;;;4.60;;
8704;SDS011;4389;41.932;25.904;2024-01-30T12:00:14;5.00;;;3.43;;
8704;SDS011;4389;41.932;25.904;2024-01-30T12:02:43;5.27;;;3.83;;
8704;SDS011;4389;41.932;25.904;2024-01-30T12:05:11;4.87;;;4.20;;
8704;SDS011;4389;41.932;25.904;2024-01-30T12:07:38;10.13;;;4.93;;
8704;SDS011;4389;41.932;25.904;2024-01-30T12:10:06;11.43;;;6.90;;
8704;SDS011;4389;41.932;25.904;2024-01-30T12:12:35;9.17;;;5.10;;
8704;SDS011;4389;41.932;25.904;2024-01-30T12:15:03;10.80;;;5.20;;
8704;SDS011;4389;41.932;25.904;2024-01-30T12:17:32;10.73;;;6.33;;
8704;SDS011;4389;41.932;25.904;2024-01-30T12:20:04;5.70;;;4.53;;
8704;SDS011;4389;41.932;25.904;2024-01-30T12:22:33;6.33;;;5.00;;
8704;SDS011;4389;41.932;25.904;2024-01-30T12:25:04;5.50;;;4.10;;
8704;SDS011;4389;41.932;25.904;2024-01-30T12:27:31;6.47;;;5.03;;
8704;SDS011;4389;41.932;25.904;2024-01-30T12:29:58;7.77;;;4.50;;
8704;SDS011;4389;41.932;25.904;2024-01-30T12:32:25;6.30;;;4.53;;
8704;SDS011;4389;41.932;25.904;2024-01-30T12:34:54;7.50;;;4.43;;
8704;SDS011;4389;41.932;25.904;2024-01-30T12:37:24;5.40;;;4.87;;
8704;SDS011;4389;41.932;25.904;2024-01-30T12:39:51;8.83;;;5.30;;
8704;SDS011;4389;41.932;25.904;2024-01-30T12:42:20;8.93;;;6.03;;
8704;SDS011;4389;41.932;25.904;2024-01-30T12:44:48;7.40;;;4.63;;
8704;SDS011;4389;41.932;25.904;2024-01-30T12:47:16;5.37;;;4.37;;
8704;SDS011;4389;41.932;25.904;2024-01-30T12:49:47;7.13;;;5.43;;
8704;SDS011;4389;41.932;25.904;2024-01-30T12:52:19;6.83;;;4.43;;
8704;SDS011;4389;41.932;25.904;2024-01-30T12:54:48;8.23;;;5.00;;
8704;SDS011;4389;41.932;25.904;2024-01-30T12:57:15;6.50;;;4.40;;
8704;SDS011;4389;41.932;25.904;2024-01-30T12:59:42;12.67;;;5.17;;
8704;SDS011;4389;41.932;25.904;2024-01-30T13:02:10;7.80;;;4.43;;
8704;SDS011;4389;41.932;25.904;2024-01-30T13:04:38;6.20;;;4.60;;
8704;SDS011;4389;41.932;25.904;2024-01-30T13:07:05;7.07;;;5.23;;
8704;SDS011;4389;41.932;25.904;2024-01-30T13:09:32;6.47;;;4.67;;
8704;SDS011;4389;41.932;25.904;2024-01-30T13:12:01;6.37;;;4.87;;
8704;SDS011;4389;41.932;25.904;2024-01-30T13:14:28;6.23;;;4.70;;
8704;SDS011;4389;41.932;25.904;2024-01-30T13:16:56;5.97;;;4.40;;
8704;SDS011;4389;41.932;25.904;2024-01-30T13:19:23;13.47;;;6.00;;
8704;SDS011;4389;41.932;25.904;2024-01-30T13:21:50;7.57;;;4.63;;
8704;SDS011;4389;41.932;25.904;2024-01-30T13:24:19;9.17;;;5.50;;
8704;SDS011;4389;41.932;25.904;2024-01-30T13:26:46;8.07;;;4.50;;
8704;SDS011;4389;41.932;25.904;2024-01-30T13:29:16;6.37;;;4.60;;
8704;SDS011;4389;41.932;25.904;2024-01-30T13:31:43;9.30;;;5.67;;
8704;SDS011;4389;41.932;25.904;2024-01-30T13:34:13;7.37;;;4.73;;
8704;SDS011;4389;41.932;25.904;2024-01-30T13:36:40;8.17;;;5.57;;
8704;SDS011;4389;41.932;25.904;2024-01-30T13:39:08;7.63;;;5.43;;
8704;SDS011;4389;41.932;25.904;2024-01-30T13:41:36;6.43;;;4.47;;
8704;SDS011;4389;41.932;25.904;2024-01-30T13:44:06;9.57;;;5.33;;
8704;SDS011;4389;41.932;25.904;2024-01-30T13:46:35;9.53;;;5.03;;
8704;SDS011;4389;41.932;25.904;2024-01-30T13:49:03;6.57;;;4.33;;
8704;SDS011;4389;41.932;25.904;2024-01-30T13:51:31;5.93;;;4.23;;
8704;SDS011;4389;41.932;25.904;2024-01-30T13:53:58;6.37;;;3.67;;
8704;SDS011;4389;41.932;25.904;2024-01-30T13:56:26;5.57;;;4.63;;
8704;SDS011;4389;41.932;25.904;2024-01-30T13:58:55;8.23;;;5.63;;
8704;SDS011;4389;41.932;25.904;2024-01-30T14:01:23;12.73;;;6.77;;
8704;SDS011;4389;41.932;25.904;2024-01-30T14:03:55;6.97;;;4.77;;
8704;SDS011;4389;41.932;25.904;2024-01-30T14:06:22;13.40;;;5.60;;
8704;SDS011;4389;41.932;25.904;2024-01-30T14:08:50;7.00;;;5.77;;
8704;SDS011;4389;41.932;25.904;2024-01-30T14:11:17;6.83;;;4.97;;
8704;SDS011;4389;41.932;25.904;2024-01-30T14:13:45;12.27;;;5.27;;
8704;SDS011;4389;41.932;25.904;2024-01-30T14:16:12;5.83;;;4.93;;
8704;SDS011;4389;41.932;25.904;2024-01-30T14:18:40;9.27;;;4.50;;
8704;SDS011;4389;41.932;25.904;2024-01-30T14:21:08;5.30;;;3.27;;
8704;SDS011;4389;41.932;25.904;2024-01-30T14:23:36;4.80;;;3.50;;
8704;SDS011;4389;41.932;25.904;2024-01-30T14:26:03;4.87;;;3.23;;
8704;SDS011;4389;41.932;25.904;2024-01-30T14:28:31;4.40;;;3.10;;
8704;SDS011;4389;41.932;25.904;2024-01-30T14:30:58;6.57;;;3.30;;
8704;SDS011;4389;41.932;25.904;2024-01-30T14:33:25;5.83;;;3.30;;
8704;SDS011;4389;41.932;25.904;2024-01-30T14:35:53;5.53;;;3.60;;
8704;SDS011;4389;41.932;25.904;2024-01-30T14:38:22;4.23;;;3.03;;
8704;SDS011;4389;41.932;25.904;2024-01-30T14:40:50;3.70;;;2.90;;
8704;SDS011;4389;41.932;25.904;2024-01-30T14:43:18;5.77;;;3.33;;
8704;SDS011;4389;41.932;25.904;2024-01-30T14:45:46;3.63;;;2.87;;
8704;SDS011;4389;41.932;25.904;2024-01-30T14:48:14;4.43;;;3.27;;
8704;SDS011;4389;41.932;25.904;2024-01-30T14:50:42;4.90;;;3.10;;
8704;SDS011;4389;41.932;25.904;2024-01-30T14:53:09;4.67;;;3.30;;
8704;SDS011;4389;41.932;25.904;2024-01-30T14:55:38;5.33;;;3.37;;
8704;SDS011;4389;41.932;25.904;2024-01-30T14:58:05;4.77;;;2.87;;
8704;SDS011;4389;41.932;25.904;2024-01-30T15:00:33;9.63;;;4.10;;